sensor_id;sensor_type;location;lat;lon;timestamp;P1;durP1;ratioP1;P2;durP2;ratioP2
49029;SDS011;43337;52.070;4.508;2023-06-24T00:01:31;5.30;;;1.73;;
49029;SDS011;43337;52.070;4.508;2023-06-24T00:03:56;4.03;;;1.50;;
49029;SDS011;43337;52.070;4.508;2023-06-24T00:06:23;5.72;;;1.80;;
49029;SDS011;43337;52.070;4.508;2023-06-24T00:08:51;4.15;;;1.75;;
49029;SDS011;43337;52.070;4.508;2023-06-24T00:14:13;3.65;;;1.70;;
49029;SDS011;43337;52.070;4.508;2023-06-24T00:16:40;4.70;;;2.10;;
49029;SDS011;43337;52.070;4.508;2023-06-24T00:19:06;3.55;;;1.90;;
49029;SDS011;43337;52.070;4.508;2023-06-24T00:21:33;5.93;;;1.85;;
49029;SDS011;43337;52.070;4.508;2023-06-24T00:23:59;4.78;;;1.80;;
49029;SDS011;43337;52.070;4.508;2023-06-24T00:26:29;5.07;;;2.05;;
49029;SDS011;43337;52.070;4.508;2023-06-24T00:28:56;3.40;;;1.75;;
49029;SDS011;43337;52.070;4.508;2023-06-24T00:31:22;3.85;;;1.77;;
49029;SDS011;43337;52.070;4.508;2023-06-24T00:33:48;5.00;;;2.00;;
49029;SDS011;43337;52.070;4.508;2023-06-24T00:36:14;6.63;;;2.17;;
49029;SDS011;43337;52.070;4.508;2023-06-24T00:38:40;3.50;;;1.80;;
49029;SDS011;43337;52.070;4.508;2023-06-24T00:41:05;4.78;;;2.08;;
49029;SDS011;43337;52.070;4.508;2023-06-24T00:43:32;4.03;;;1.65;;
49029;SDS011;43337;52.070;4.508;2023-06-24T00:45:57;4.20;;;2.03;;
49029;SDS011;43337;52.070;4.508;2023-06-24T00:48:23;4.40;;;1.80;;
49029;SDS011;43337;52.070;4.508;2023-06-24T00:50:49;4.80;;;1.80;;
49029;SDS011;43337;52.070;4.508;2023-06-24T00:53:18;8.77;;;2.65;;
49029;SDS011;43337;52.070;4.508;2023-06-24T00:55:45;4.82;;;1.80;;
49029;SDS011;43337;52.070;4.508;2023-06-24T00:58:11;4.47;;;2.15;;
49029;SDS011;43337;52.070;4.508;2023-06-24T01:00:41;5.55;;;1.85;;
49029;SDS011;43337;52.070;4.508;2023-06-24T01:03:08;5.93;;;2.05;;
49029;SDS011;43337;52.070;4.508;2023-06-24T01:05:35;4.43;;;1.92;;
49029;SDS011;43337;52.070;4.508;2023-06-24T01:08:01;4.18;;;1.85;;
49029;SDS011;43337;52.070;4.508;2023-06-24T01:10:28;4.07;;;1.88;;
49029;SDS011;43337;52.070;4.508;2023-06-24T01:12:54;5.22;;;2.30;;
49029;SDS011;43337;52.070;4.508;2023-06-24T01:15:19;4.93;;;1.83;;
49029;SDS011;43337;52.070;4.508;2023-06-24T01:21:05;3.78;;;1.67;;
49029;SDS011;43337;52.070;4.508;2023-06-24T01:31:51;6.63;;;1.80;;
49029;SDS011;43337;52.070;4.508;2023-06-24T01:37:20;5.00;;;2.13;;
49029;SDS011;43337;52.070;4.508;2023-06-24T01:40:10;5.65;;;1.88;;
49029;SDS011;43337;52.070;4.508;2023-06-24T01:42:40;4.07;;;2.00;;
49029;SDS011;43337;52.070;4.508;2023-06-24T01:45:09;5.80;;;1.98;;
49029;SDS011;43337;52.070;4.508;2023-06-24T01:47:43;4.10;;;2.13;;
49029;SDS011;43337;52.070;4.508;2023-06-24T01:50:12;6.90;;;2.03;;
49029;SDS011;43337;52.070;4.508;2023-06-24T01:52:41;4.50;;;1.85;;
49029;SDS011;43337;52.070;4.508;2023-06-24T01:55:09;5.13;;;2.00;;
49029;SDS011;43337;52.070;4.508;2023-06-24T01:57:37;6.68;;;1.98;;
49029;SDS011;43337;52.070;4.508;2023-06-24T02:00:07;4.75;;;1.88;;
49029;SDS011;43337;52.070;4.508;2023-06-24T02:02:34;4.88;;;1.98;;
49029;SDS011;43337;52.070;4.508;2023-06-24T02:05:01;4.38;;;2.00;;
49029;SDS011;43337;52.070;4.508;2023-06-24T02:07:30;5.50;;;1.98;;
49029;SDS011;43337;52.070;4.508;2023-06-24T02:09:57;5.97;;;2.03;;
49029;SDS011;43337;52.070;4.508;2023-06-24T02:12:25;6.90;;;2.10;;
49029;SDS011;43337;52.070;4.508;2023-06-24T02:14:52;4.78;;;2.15;;
49029;SDS011;43337;52.070;4.508;2023-06-24T02:17:20;4.32;;;2.05;;
49029;SDS011;43337;52.070;4.508;2023-06-24T02:19:49;6.25;;;2.67;;
49029;SDS011;43337;52.070;4.508;2023-06-24T02:22:15;6.75;;;2.70;;
49029;SDS011;43337;52.070;4.508;2023-06-24T02:24:42;4.82;;;2.00;;
49029;SDS011;43337;52.070;4.508;2023-06-24T02:27:09;4.95;;;2.20;;
49029;SDS011;43337;52.070;4.508;2023-06-24T02:29:37;4.55;;;2.05;;
49029;SDS011;43337;52.070;4.508;2023-06-24T02:32:04;5.30;;;2.50;;
49029;SDS011;43337;52.070;4.508;2023-06-24T02:34:30;7.28;;;3.10;;
49029;SDS011;43337;52.070;4.508;2023-06-24T02:36:56;4.63;;;2.28;;
49029;SDS011;43337;52.070;4.508;2023-06-24T02:39:21;4.97;;;1.88;;
49029;SDS011;43337;52.070;4.508;2023-06-24T02:41:47;6.05;;;2.70;;
49029;SDS011;43337;52.070;4.508;2023-06-24T02:44:14;4.93;;;2.28;;
49029;SDS011;43337;52.070;4.508;2023-06-24T02:46:40;6.22;;;2.67;;
49029;SDS011;43337;52.070;4.508;2023-06-24T02:49:12;6.95;;;2.55;;
49029;SDS011;43337;52.070;4.508;2023-06-24T02:51:40;7.22;;;2.45;;
49029;SDS011;43337;52.070;4.508;2023-06-24T02:54:06;5.70;;;2.53;;
49029;SDS011;43337;52.070;4.508;2023-06-24T02:56:32;5.00;;;2.35;;
49029;SDS011;43337;52.070;4.508;2023-06-24T02:58:58;7.10;;;2.60;;
49029;SDS011;43337;52.070;4.508;2023-06-24T03:01:23;5.93;;;2.65;;
49029;SDS011;43337;52.070;4.508;2023-06-24T03:03:53;4.90;;;2.75;;
49029;SDS011;43337;52.070;4.508;2023-06-24T03:06:20;8.10;;;3.75;;
49029;SDS011;43337;52.070;4.508;2023-06-24T03:08:47;6.78;;;2.47;;
49029;SDS011;43337;52.070;4.508;2023-06-24T03:11:13;9.95;;;2.90;;
49029;SDS011;43337;52.070;4.508;2023-06-24T03:13:42;6.95;;;2.90;;
49029;SDS011;43337;52.070;4.508;2023-06-24T03:16:08;5.68;;;2.70;;
49029;SDS011;43337;52.070;4.508;2023-06-24T03:18:37;6.68;;;2.50;;
49029;SDS011;43337;52.070;4.508;2023-06-24T03:21:09;6.45;;;2.58;;
49029;SDS011;43337;52.070;4.508;2023-06-24T03:23:35;6.20;;;2.55;;
49029;SDS011;43337;52.070;4.508;2023-06-24T03:26:01;5.78;;;2.65;;
49029;SDS011;43337;52.070;4.508;2023-06-24T03:28:28;6.80;;;2.45;;
49029;SDS011;43337;52.070;4.508;2023-06-24T03:30:55;5.13;;;2.60;;
49029;SDS011;43337;52.070;4.508;2023-06-24T03:33:21;8.27;;;2.63;;
49029;SDS011;43337;52.070;4.508;2023-06-24T03:35:46;6.38;;;2.75;;
49029;SDS011;43337;52.070;4.508;2023-06-24T03:38:12;8.20;;;3.13;;
49029;SDS011;43337;52.070;4.508;2023-06-24T03:40:37;7.18;;;2.90;;
49029;SDS011;43337;52.070;4.508;2023-06-24T03:43:02;4.10;;;2.33;;
49029;SDS011;43337;52.070;4.508;2023-06-24T03:45:28;5.97;;;2.65;;
49029;SDS011;43337;52.070;4.508;2023-06-24T03:47:53;7.47;;;3.10;;
49029;SDS011;43337;52.070;4.508;2023-06-24T03:50:18;7.35;;;3.08;;
49029;SDS011;43337;52.070;4.508;2023-06-24T03:52:44;6.95;;;3.63;;
49029;SDS011;43337;52.070;4.508;2023-06-24T03:55:09;6.93;;;3.15;;
49029;SDS011;43337;52.070;4.508;2023-06-24T03:57:36;9.10;;;3.15;;
49029;SDS011;43337;52.070;4.508;2023-06-24T04:00:02;6.32;;;3.13;;
49029;SDS011;43337;52.070;4.508;2023-06-24T04:02:37;6.30;;;2.80;;
49029;SDS011;43337;52.070;4.508;2023-06-24T04:05:02;7.03;;;3.28;;
49029;SDS011;43337;52.070;4.508;2023-06-24T04:07:28;6.05;;;2.83;;
49029;SDS011;43337;52.070;4.508;2023-06-24T04:09:54;8.40;;;3.72;;
49029;SDS011;43337;52.070;4.508;2023-06-24T04:12:20;8.52;;;3.53;;
49029;SDS011;43337;52.070;4.508;2023-06-24T04:14:46;7.47;;;3.70;;
49029;SDS011;43337;52.070;4.508;2023-06-24T04:17:11;6.68;;;3.33;;
49029;SDS011;43337;52.070;4.508;2023-06-24T04:19:36;8.05;;;3.45;;
49029;SDS011;43337;52.070;4.508;2023-06-24T04:22:02;8.38;;;3.00;;
49029;SDS011;43337;52.070;4.508;2023-06-24T04:24:27;8.63;;;3.25;;
49029;SDS011;43337;52.070;4.508;2023-06-24T04:26:53;9.10;;;3.08;;
49029;SDS011;43337;52.070;4.508;2023-06-24T04:29:18;8.50;;;3.47;;
49029;SDS011;43337;52.070;4.508;2023-06-24T04:31:43;7.03;;;3.33;;
49029;SDS011;43337;52.070;4.508;2023-06-24T04:34:09;7.13;;;3.42;;
49029;SDS011;43337;52.070;4.508;2023-06-24T04:36:34;7.15;;;3.28;;
49029;SDS011;43337;52.070;4.508;2023-06-24T04:39:00;7.30;;;3.17;;
49029;SDS011;43337;52.070;4.508;2023-06-24T04:41:25;6.15;;;3.22;;
49029;SDS011;43337;52.070;4.508;2023-06-24T04:43:51;12.07;;;4.68;;
49029;SDS011;43337;52.070;4.508;2023-06-24T04:46:16;9.88;;;4.78;;
49029;SDS011;43337;52.070;4.508;2023-06-24T04:48:41;8.40;;;3.67;;
49029;SDS011;43337;52.070;4.508;2023-06-24T04:51:07;7.43;;;3.30;;
49029;SDS011;43337;52.070;4.508;2023-06-24T04:53:32;7.85;;;3.42;;
49029;SDS011;43337;52.070;4.508;2023-06-24T04:55:58;9.32;;;3.72;;
49029;SDS011;43337;52.070;4.508;2023-06-24T04:58:24;7.85;;;3.70;;
49029;SDS011;43337;52.070;4.508;2023-06-24T05:00:49;7.55;;;3.85;;
49029;SDS011;43337;52.070;4.508;2023-06-24T05:03:14;8.80;;;4.05;;
49029;SDS011;43337;52.070;4.508;2023-06-24T05:05:40;10.40;;;3.50;;
49029;SDS011;43337;52.070;4.508;2023-06-24T05:08:05;8.40;;;3.58;;
49029;SDS011;43337;52.070;4.508;2023-06-24T05:10:30;9.05;;;4.70;;
49029;SDS011;43337;52.070;4.508;2023-06-24T05:12:56;12.63;;;5.53;;
49029;SDS011;43337;52.070;4.508;2023-06-24T05:15:21;9.13;;;3.95;;
49029;SDS011;43337;52.070;4.508;2023-06-24T05:17:46;8.63;;;3.83;;
49029;SDS011;43337;52.070;4.508;2023-06-24T05:20:11;10.40;;;4.25;;
49029;SDS011;43337;52.070;4.508;2023-06-24T05:22:37;9.32;;;4.55;;
49029;SDS011;43337;52.070;4.508;2023-06-24T05:25:02;8.65;;;3.45;;
49029;SDS011;43337;52.070;4.508;2023-06-24T05:27:28;8.88;;;3.92;;
49029;SDS011;43337;52.070;4.508;2023-06-24T05:29:53;10.02;;;4.50;;
49029;SDS011;43337;52.070;4.508;2023-06-24T05:32:18;8.48;;;4.20;;
49029;SDS011;43337;52.070;4.508;2023-06-24T05:34:45;10.40;;;5.07;;
49029;SDS011;43337;52.070;4.508;2023-06-24T05:37:11;14.38;;;4.55;;
49029;SDS011;43337;52.070;4.508;2023-06-24T05:39:36;8.85;;;4.22;;
49029;SDS011;43337;52.070;4.508;2023-06-24T05:42:02;12.23;;;5.03;;
49029;SDS011;43337;52.070;4.508;2023-06-24T05:44:27;15.27;;;5.20;;
49029;SDS011;43337;52.070;4.508;2023-06-24T05:46:52;11.10;;;4.75;;
49029;SDS011;43337;52.070;4.508;2023-06-24T05:49:18;10.23;;;4.57;;
49029;SDS011;43337;52.070;4.508;2023-06-24T05:51:43;11.55;;;5.20;;
49029;SDS011;43337;52.070;4.508;2023-06-24T05:54:08;13.48;;;6.82;;
49029;SDS011;43337;52.070;4.508;2023-06-24T05:56:34;9.13;;;4.38;;
49029;SDS011;43337;52.070;4.508;2023-06-24T05:59:01;9.82;;;4.40;;
49029;SDS011;43337;52.070;4.508;2023-06-24T06:01:26;9.32;;;4.50;;
49029;SDS011;43337;52.070;4.508;2023-06-24T06:03:52;12.05;;;5.70;;
49029;SDS011;43337;52.070;4.508;2023-06-24T06:06:17;9.10;;;5.38;;
49029;SDS011;43337;52.070;4.508;2023-06-24T06:08:43;9.50;;;4.72;;
49029;SDS011;43337;52.070;4.508;2023-06-24T06:11:08;12.48;;;5.20;;
49029;SDS011;43337;52.070;4.508;2023-06-24T06:13:33;8.95;;;5.00;;
49029;SDS011;43337;52.070;4.508;2023-06-24T06:15:58;9.95;;;4.60;;
49029;SDS011;43337;52.070;4.508;2023-06-24T06:18:24;9.57;;;4.40;;
49029;SDS011;43337;52.070;4.508;2023-06-24T06:20:49;8.38;;;4.80;;
49029;SDS011;43337;52.070;4.508;2023-06-24T06:23:15;10.57;;;4.43;;
49029;SDS011;43337;52.070;4.508;2023-06-24T06:25:40;10.98;;;4.38;;
49029;SDS011;43337;52.070;4.508;2023-06-24T06:28:06;12.52;;;5.22;;
49029;SDS011;43337;52.070;4.508;2023-06-24T06:30:31;12.07;;;4.47;;
49029;SDS011;43337;52.070;4.508;2023-06-24T06:32:57;9.18;;;5.15;;
49029;SDS011;43337;52.070;4.508;2023-06-24T06:35:22;10.63;;;5.30;;
49029;SDS011;43337;52.070;4.508;2023-06-24T06:37:48;10.73;;;4.43;;
49029;SDS011;43337;52.070;4.508;2023-06-24T06:40:17;7.53;;;4.30;;
49029;SDS011;43337;52.070;4.508;2023-06-24T06:42:43;7.88;;;4.53;;
49029;SDS011;43337;52.070;4.508;2023-06-24T06:45:09;8.70;;;4.75;;
49029;SDS011;43337;52.070;4.508;2023-06-24T06:47:34;10.45;;;4.88;;
49029;SDS011;43337;52.070;4.508;2023-06-24T06:50:00;7.97;;;4.47;;
49029;SDS011;43337;52.070;4.508;2023-06-24T06:52:25;10.80;;;4.60;;
49029;SDS011;43337;52.070;4.508;2023-06-24T06:54:52;9.35;;;4.60;;
49029;SDS011;43337;52.070;4.508;2023-06-24T06:57:17;11.55;;;4.43;;
49029;SDS011;43337;52.070;4.508;2023-06-24T06:59:42;8.60;;;4.32;;
49029;SDS011;43337;52.070;4.508;2023-06-24T07:02:08;9.52;;;4.97;;
49029;SDS011;43337;52.070;4.508;2023-06-24T07:04:33;9.52;;;5.00;;
49029;SDS011;43337;52.070;4.508;2023-06-24T07:06:58;9.18;;;4.57;;
49029;SDS011;43337;52.070;4.508;2023-06-24T07:09:24;7.85;;;4.60;;
49029;SDS011;43337;52.070;4.508;2023-06-24T07:11:49;10.35;;;5.57;;
49029;SDS011;43337;52.070;4.508;2023-06-24T07:14:15;10.73;;;5.32;;
49029;SDS011;43337;52.070;4.508;2023-06-24T07:16:40;11.38;;;5.35;;
49029;SDS011;43337;52.070;4.508;2023-06-24T07:19:05;9.98;;;5.38;;
49029;SDS011;43337;52.070;4.508;2023-06-24T07:21:31;9.80;;;4.65;;
49029;SDS011;43337;52.070;4.508;2023-06-24T07:23:56;10.77;;;4.90;;
49029;SDS011;43337;52.070;4.508;2023-06-24T07:26:22;8.68;;;4.65;;
49029;SDS011;43337;52.070;4.508;2023-06-24T07:28:47;10.65;;;5.30;;
49029;SDS011;43337;52.070;4.508;2023-06-24T07:31:12;11.52;;;5.25;;
49029;SDS011;43337;52.070;4.508;2023-06-24T07:33:38;10.13;;;4.50;;
49029;SDS011;43337;52.070;4.508;2023-06-24T07:36:03;11.10;;;5.70;;
49029;SDS011;43337;52.070;4.508;2023-06-24T07:38:29;8.45;;;4.22;;
49029;SDS011;43337;52.070;4.508;2023-06-24T07:40:55;24.35;;;5.85;;
49029;SDS011;43337;52.070;4.508;2023-06-24T07:43:20;10.95;;;5.22;;
49029;SDS011;43337;52.070;4.508;2023-06-24T07:45:46;10.57;;;5.35;;
49029;SDS011;43337;52.070;4.508;2023-06-24T07:48:11;10.98;;;5.38;;
49029;SDS011;43337;52.070;4.508;2023-06-24T07:50:37;10.35;;;5.25;;
49029;SDS011;43337;52.070;4.508;2023-06-24T07:53:04;10.07;;;4.70;;
49029;SDS011;43337;52.070;4.508;2023-06-24T07:55:29;12.27;;;5.25;;
49029;SDS011;43337;52.070;4.508;2023-06-24T07:57:55;9.35;;;4.80;;
49029;SDS011;43337;52.070;4.508;2023-06-24T08:00:20;7.38;;;4.35;;
49029;SDS011;43337;52.070;4.508;2023-06-24T08:02:45;11.23;;;5.05;;
49029;SDS011;43337;52.070;4.508;2023-06-24T08:05:11;10.60;;;4.82;;
49029;SDS011;43337;52.070;4.508;2023-06-24T08:07:37;10.15;;;4.72;;
49029;SDS011;43337;52.070;4.508;2023-06-24T08:10:03;8.48;;;4.95;;
49029;SDS011;43337;52.070;4.508;2023-06-24T08:12:29;9.68;;;4.80;;
49029;SDS011;43337;52.070;4.508;2023-06-24T08:14:54;9.32;;;5.03;;
49029;SDS011;43337;52.070;4.508;2023-06-24T08:17:19;10.73;;;5.50;;
49029;SDS011;43337;52.070;4.508;2023-06-24T08:19:45;12.35;;;5.75;;
49029;SDS011;43337;52.070;4.508;2023-06-24T08:22:10;8.32;;;4.75;;
49029;SDS011;43337;52.070;4.508;2023-06-24T08:24:36;9.05;;;4.53;;
49029;SDS011;43337;52.070;4.508;2023-06-24T08:27:01;8.57;;;5.00;;
49029;SDS011;43337;52.070;4.508;2023-06-24T08:29:27;8.77;;;4.88;;
49029;SDS011;43337;52.070;4.508;2023-06-24T08:31:52;9.23;;;4.82;;
49029;SDS011;43337;52.070;4.508;2023-06-24T08:34:17;9.13;;;4.78;;
49029;SDS011;43337;52.070;4.508;2023-06-24T08:36:43;8.73;;;4.05;;
49029;SDS011;43337;52.070;4.508;2023-06-24T08:39:08;9.00;;;4.65;;
49029;SDS011;43337;52.070;4.508;2023-06-24T08:41:33;8.80;;;4.35;;
49029;SDS011;43337;52.070;4.508;2023-06-24T08:43:59;9.55;;;4.95;;
49029;SDS011;43337;52.070;4.508;2023-06-24T08:46:24;7.65;;;4.60;;
49029;SDS011;43337;52.070;4.508;2023-06-24T08:48:54;11.82;;;4.60;;
49029;SDS011;43337;52.070;4.508;2023-06-24T08:51:32;8.50;;;5.00;;
49029;SDS011;43337;52.070;4.508;2023-06-24T08:54:03;9.23;;;4.63;;
49029;SDS011;43337;52.070;4.508;2023-06-24T08:56:32;9.85;;;4.75;;
49029;SDS011;43337;52.070;4.508;2023-06-24T08:58:57;9.55;;;4.82;;
49029;SDS011;43337;52.070;4.508;2023-06-24T09:01:23;12.43;;;5.03;;
49029;SDS011;43337;52.070;4.508;2023-06-24T09:03:51;9.38;;;5.20;;
49029;SDS011;43337;52.070;4.508;2023-06-24T09:06:16;13.55;;;6.97;;
49029;SDS011;43337;52.070;4.508;2023-06-24T09:08:51;12.10;;;5.70;;
49029;SDS011;43337;52.070;4.508;2023-06-24T09:11:26;11.70;;;5.35;;
49029;SDS011;43337;52.070;4.508;2023-06-24T09:13:59;9.73;;;4.55;;
49029;SDS011;43337;52.070;4.508;2023-06-24T09:16:25;7.85;;;4.22;;
49029;SDS011;43337;52.070;4.508;2023-06-24T09:18:52;9.07;;;4.50;;
49029;SDS011;43337;52.070;4.508;2023-06-24T09:21:24;10.07;;;4.88;;
49029;SDS011;43337;52.070;4.508;2023-06-24T09:23:52;9.95;;;5.13;;
49029;SDS011;43337;52.070;4.508;2023-06-24T09:26:18;9.38;;;4.72;;
49029;SDS011;43337;52.070;4.508;2023-06-24T09:28:47;15.52;;;6.30;;
49029;SDS011;43337;52.070;4.508;2023-06-24T09:31:14;9.80;;;5.35;;
49029;SDS011;43337;52.070;4.508;2023-06-24T09:33:40;10.23;;;5.13;;
49029;SDS011;43337;52.070;4.508;2023-06-24T09:36:06;10.23;;;4.93;;
49029;SDS011;43337;52.070;4.508;2023-06-24T09:38:37;8.68;;;5.10;;
49029;SDS011;43337;52.070;4.508;2023-06-24T09:41:06;7.25;;;4.55;;
49029;SDS011;43337;52.070;4.508;2023-06-24T09:43:38;9.43;;;4.85;;
49029;SDS011;43337;52.070;4.508;2023-06-24T09:46:07;9.27;;;4.50;;
49029;SDS011;43337;52.070;4.508;2023-06-24T09:48:34;12.95;;;5.45;;
49029;SDS011;43337;52.070;4.508;2023-06-24T09:51:00;11.77;;;5.90;;
49029;SDS011;43337;52.070;4.508;2023-06-24T09:53:33;9.88;;;5.15;;
49029;SDS011;43337;52.070;4.508;2023-06-24T09:56:00;11.55;;;5.22;;
49029;SDS011;43337;52.070;4.508;2023-06-24T10:01:48;6.85;;;3.20;;
49029;SDS011;43337;52.070;4.508;2023-06-24T10:04:17;8.10;;;4.63;;
49029;SDS011;43337;52.070;4.508;2023-06-24T10:06:44;9.50;;;4.38;;
49029;SDS011;43337;52.070;4.508;2023-06-24T10:09:09;8.25;;;4.35;;
49029;SDS011;43337;52.070;4.508;2023-06-24T10:11:38;9.82;;;3.97;;
49029;SDS011;43337;52.070;4.508;2023-06-24T10:14:03;9.57;;;4.70;;
49029;SDS011;43337;52.070;4.508;2023-06-24T10:16:29;8.50;;;4.25;;
49029;SDS011;43337;52.070;4.508;2023-06-24T10:19:01;9.70;;;4.05;;
49029;SDS011;43337;52.070;4.508;2023-06-24T10:24:37;7.50;;;4.63;;
49029;SDS011;43337;52.070;4.508;2023-06-24T10:27:08;11.65;;;4.68;;
49029;SDS011;43337;52.070;4.508;2023-06-24T10:29:38;9.90;;;4.47;;
49029;SDS011;43337;52.070;4.508;2023-06-24T10:34:31;9.15;;;4.40;;
49029;SDS011;43337;52.070;4.508;2023-06-24T10:37:01;8.02;;;4.10;;
49029;SDS011;43337;52.070;4.508;2023-06-24T10:44:52;9.10;;;4.30;;
49029;SDS011;43337;52.070;4.508;2023-06-24T10:47:19;7.53;;;3.80;;
49029;SDS011;43337;52.070;4.508;2023-06-24T10:49:46;9.85;;;4.40;;
49029;SDS011;43337;52.070;4.508;2023-06-24T10:52:12;9.05;;;4.22;;
49029;SDS011;43337;52.070;4.508;2023-06-24T10:54:38;10.13;;;4.25;;
49029;SDS011;43337;52.070;4.508;2023-06-24T10:57:07;10.40;;;4.88;;
49029;SDS011;43337;52.070;4.508;2023-06-24T11:02:04;9.77;;;4.40;;
49029;SDS011;43337;52.070;4.508;2023-06-24T11:04:29;7.82;;;3.67;;
49029;SDS011;43337;52.070;4.508;2023-06-24T11:07:01;11.25;;;5.10;;
49029;SDS011;43337;52.070;4.508;2023-06-24T11:09:27;8.60;;;4.13;;
49029;SDS011;43337;52.070;4.508;2023-06-24T11:11:52;6.63;;;3.53;;
49029;SDS011;43337;52.070;4.508;2023-06-24T11:14:21;8.15;;;3.65;;
49029;SDS011;43337;52.070;4.508;2023-06-24T11:16:46;10.32;;;3.97;;
49029;SDS011;43337;52.070;4.508;2023-06-24T11:19:12;8.95;;;3.30;;
49029;SDS011;43337;52.070;4.508;2023-06-24T11:21:37;6.25;;;3.10;;
49029;SDS011;43337;52.070;4.508;2023-06-24T11:24:03;8.00;;;3.25;;
49029;SDS011;43337;52.070;4.508;2023-06-24T11:26:29;6.45;;;3.60;;
49029;SDS011;43337;52.070;4.508;2023-06-24T11:28:55;8.52;;;4.18;;
49029;SDS011;43337;52.070;4.508;2023-06-24T11:31:27;6.80;;;3.65;;
49029;SDS011;43337;52.070;4.508;2023-06-24T11:33:52;7.15;;;3.45;;
49029;SDS011;43337;52.070;4.508;2023-06-24T11:36:21;8.38;;;3.45;;
49029;SDS011;43337;52.070;4.508;2023-06-24T11:38:47;6.80;;;3.15;;
49029;SDS011;43337;52.070;4.508;2023-06-24T11:41:13;6.78;;;3.42;;
49029;SDS011;43337;52.070;4.508;2023-06-24T11:43:45;6.80;;;3.28;;
49029;SDS011;43337;52.070;4.508;2023-06-24T11:46:20;5.07;;;2.88;;
49029;SDS011;43337;52.070;4.508;2023-06-24T11:48:52;5.25;;;3.10;;
49029;SDS011;43337;52.070;4.508;2023-06-24T11:51:18;6.30;;;3.15;;
49029;SDS011;43337;52.070;4.508;2023-06-24T11:53:44;8.85;;;3.67;;
49029;SDS011;43337;52.070;4.508;2023-06-24T11:56:13;6.93;;;3.42;;
49029;SDS011;43337;52.070;4.508;2023-06-24T11:58:39;5.70;;;3.50;;
49029;SDS011;43337;52.070;4.508;2023-06-24T12:01:07;8.27;;;3.58;;
49029;SDS011;43337;52.070;4.508;2023-06-24T12:03:35;8.15;;;4.43;;
49029;SDS011;43337;52.070;4.508;2023-06-24T12:06:01;6.72;;;3.38;;
49029;SDS011;43337;52.070;4.508;2023-06-24T12:08:26;12.50;;;3.97;;
49029;SDS011;43337;52.070;4.508;2023-06-24T12:10:52;6.82;;;3.35;;
49029;SDS011;43337;52.070;4.508;2023-06-24T12:13:17;7.70;;;3.22;;
49029;SDS011;43337;52.070;4.508;2023-06-24T12:15:43;9.48;;;3.78;;
49029;SDS011;43337;52.070;4.508;2023-06-24T12:18:08;9.32;;;3.92;;
49029;SDS011;43337;52.070;4.508;2023-06-24T12:20:34;9.45;;;4.30;;
49029;SDS011;43337;52.070;4.508;2023-06-24T12:23:01;10.63;;;5.05;;
49029;SDS011;43337;52.070;4.508;2023-06-24T12:25:27;9.23;;;4.30;;
49029;SDS011;43337;52.070;4.508;2023-06-24T12:27:52;9.52;;;3.75;;
49029;SDS011;43337;52.070;4.508;2023-06-24T12:30:17;8.43;;;3.95;;
49029;SDS011;43337;52.070;4.508;2023-06-24T12:32:43;8.02;;;3.90;;
49029;SDS011;43337;52.070;4.508;2023-06-24T12:35:09;8.80;;;4.60;;
49029;SDS011;43337;52.070;4.508;2023-06-24T12:37:35;7.10;;;4.00;;
49029;SDS011;43337;52.070;4.508;2023-06-24T12:40:02;7.60;;;3.72;;
49029;SDS011;43337;52.070;4.508;2023-06-24T12:42:28;6.57;;;4.18;;
49029;SDS011;43337;52.070;4.508;2023-06-24T12:44:53;7.63;;;3.95;;
49029;SDS011;43337;52.070;4.508;2023-06-24T12:47:19;9.52;;;3.78;;
49029;SDS011;43337;52.070;4.508;2023-06-24T12:49:45;9.88;;;4.57;;
49029;SDS011;43337;52.070;4.508;2023-06-24T12:52:12;9.70;;;4.60;;
49029;SDS011;43337;52.070;4.508;2023-06-24T12:54:38;10.60;;;4.07;;
49029;SDS011;43337;52.070;4.508;2023-06-24T12:57:03;9.05;;;4.20;;
49029;SDS011;43337;52.070;4.508;2023-06-24T12:59:29;9.15;;;4.40;;
49029;SDS011;43337;52.070;4.508;2023-06-24T13:01:54;8.98;;;4.70;;
49029;SDS011;43337;52.070;4.508;2023-06-24T13:04:20;6.43;;;4.65;;
49029;SDS011;43337;52.070;4.508;2023-06-24T13:06:47;9.00;;;4.47;;
49029;SDS011;43337;52.070;4.508;2023-06-24T13:09:14;8.82;;;4.50;;
49029;SDS011;43337;52.070;4.508;2023-06-24T13:11:40;10.13;;;4.05;;
49029;SDS011;43337;52.070;4.508;2023-06-24T13:14:05;9.60;;;4.50;;
49029;SDS011;43337;52.070;4.508;2023-06-24T13:16:31;8.95;;;4.60;;
49029;SDS011;43337;52.070;4.508;2023-06-24T13:18:57;8.63;;;4.72;;
49029;SDS011;43337;52.070;4.508;2023-06-24T13:21:23;9.60;;;4.80;;
49029;SDS011;43337;52.070;4.508;2023-06-24T13:23:49;9.77;;;5.50;;
49029;SDS011;43337;52.070;4.508;2023-06-24T13:26:14;8.02;;;5.20;;
49029;SDS011;43337;52.070;4.508;2023-06-24T13:28:40;14.25;;;5.47;;
49029;SDS011;43337;52.070;4.508;2023-06-24T13:31:05;8.18;;;5.47;;
49029;SDS011;43337;52.070;4.508;2023-06-24T13:33:31;11.77;;;5.95;;
49029;SDS011;43337;52.070;4.508;2023-06-24T13:35:57;9.18;;;5.70;;
49029;SDS011;43337;52.070;4.508;2023-06-24T13:38:23;8.90;;;5.20;;
49029;SDS011;43337;52.070;4.508;2023-06-24T13:40:48;7.80;;;5.00;;
49029;SDS011;43337;52.070;4.508;2023-06-24T13:43:13;8.80;;;4.95;;
49029;SDS011;43337;52.070;4.508;2023-06-24T13:45:39;10.65;;;5.38;;
49029;SDS011;43337;52.070;4.508;2023-06-24T13:48:04;10.75;;;5.78;;
49029;SDS011;43337;52.070;4.508;2023-06-24T13:50:30;9.73;;;5.32;;
49029;SDS011;43337;52.070;4.508;2023-06-24T13:52:55;9.90;;;5.75;;
49029;SDS011;43337;52.070;4.508;2023-06-24T13:55:21;11.13;;;5.47;;
49029;SDS011;43337;52.070;4.508;2023-06-24T13:57:47;10.35;;;5.80;;
49029;SDS011;43337;52.070;4.508;2023-06-24T14:00:12;10.43;;;5.63;;
49029;SDS011;43337;52.070;4.508;2023-06-24T14:02:39;8.43;;;5.10;;
49029;SDS011;43337;52.070;4.508;2023-06-24T14:05:04;10.25;;;5.25;;
49029;SDS011;43337;52.070;4.508;2023-06-24T14:07:30;9.45;;;5.18;;
49029;SDS011;43337;52.070;4.508;2023-06-24T14:09:56;9.43;;;5.05;;
49029;SDS011;43337;52.070;4.508;2023-06-24T14:12:21;11.38;;;6.53;;
49029;SDS011;43337;52.070;4.508;2023-06-24T14:14:47;7.82;;;4.60;;
49029;SDS011;43337;52.070;4.508;2023-06-24T14:17:12;8.70;;;4.93;;
49029;SDS011;43337;52.070;4.508;2023-06-24T14:19:39;10.25;;;5.10;;
49029;SDS011;43337;52.070;4.508;2023-06-24T14:22:05;14.20;;;6.18;;
49029;SDS011;43337;52.070;4.508;2023-06-24T14:24:31;13.48;;;6.82;;
49029;SDS011;43337;52.070;4.508;2023-06-24T14:26:57;10.90;;;6.70;;
49029;SDS011;43337;52.070;4.508;2023-06-24T14:29:22;8.30;;;5.82;;
49029;SDS011;43337;52.070;4.508;2023-06-24T14:31:47;12.77;;;6.45;;
49029;SDS011;43337;52.070;4.508;2023-06-24T14:34:13;12.27;;;7.13;;
49029;SDS011;43337;52.070;4.508;2023-06-24T14:36:39;14.25;;;6.85;;
49029;SDS011;43337;52.070;4.508;2023-06-24T14:39:04;10.43;;;6.88;;
49029;SDS011;43337;52.070;4.508;2023-06-24T14:41:30;9.85;;;6.65;;
49029;SDS011;43337;52.070;4.508;2023-06-24T14:43:55;12.73;;;8.15;;
49029;SDS011;43337;52.070;4.508;2023-06-24T14:46:20;15.15;;;8.50;;
49029;SDS011;43337;52.070;4.508;2023-06-24T14:48:46;12.38;;;7.63;;
49029;SDS011;43337;52.070;4.508;2023-06-24T14:51:11;15.73;;;8.52;;
49029;SDS011;43337;52.070;4.508;2023-06-24T14:53:36;12.25;;;7.80;;
49029;SDS011;43337;52.070;4.508;2023-06-24T14:56:02;13.55;;;7.68;;
49029;SDS011;43337;52.070;4.508;2023-06-24T14:58:27;13.75;;;9.10;;
49029;SDS011;43337;52.070;4.508;2023-06-24T15:00:52;16.48;;;8.90;;
49029;SDS011;43337;52.070;4.508;2023-06-24T15:03:18;15.55;;;7.70;;
49029;SDS011;43337;52.070;4.508;2023-06-24T15:05:44;11.75;;;7.35;;
49029;SDS011;43337;52.070;4.508;2023-06-24T15:08:09;15.68;;;7.60;;
49029;SDS011;43337;52.070;4.508;2023-06-24T15:10:35;9.43;;;6.68;;
49029;SDS011;43337;52.070;4.508;2023-06-24T15:13:00;13.88;;;7.00;;